Battleford, Canada
Current Conditions -  °F | °C
As of 12:00 AM on Thursday 23 Oct 2014 (Local Time) from CYQW Reporting Station
Clear Clear  
Wind Chill: 30°   Ceiling: Unl
Heat Index: 37°   Visibility: 9mi
Dew Point: 34°   Wind: 10mph
Humidity: 87%   Direction: 120°ESE
Pressure: 29.71"   Gusts: NA
Location:  52.77°N, 108.3°W
Report Text: CYQW 230600Z AUTO 12009KT 9SM CLR 03/01 A2971 RMK SLP077
Loading
Personal Weather Stations






























Interactive Weather Map
Tropical Storm Tracking
New forecast layout! Learn more

10-Day Weather Forecast

Advertisements
Track Severe Weather on mobile